Time;durP1;ratioP1;P1;durP2;ratioP2;P2;SDS_P1;SDS_P2;PMS_P1;PMS_P2;Temp;Humidity;BMP_temperature;BMP_pressure;BME280_temperature;BME280_humidity;BME280_pressure;Samples;Min_cycle;Max_cycle;Signal;HPM_P1;HPM_P2
2024/01/22 00:01:24;;;;;;;8.38;4.60;;;22.30;39.30;;;;;;10439088;28;20046;-49
2024/01/22 00:06:27;;;;;;;6.88;4.70;;;22.30;39.50;;;;;;10442178;28;20041;-50
2024/01/22 00:11:28;;;;;;;10.57;5.97;;;22.30;39.70;;;;;;10439313;28;20498;-51
2024/01/22 00:16:31;;;;;;;8.57;5.18;;;22.30;39.70;;;;;;10437666;28;20033;-47
2024/01/22 00:21:34;;;;;;;9.57;6.28;;;22.20;39.90;;;;;;10436890;28;20051;-49
2024/01/22 00:26:36;;;;;;;9.65;6.53;;;22.10;40.10;;;;;;10433810;28;20033;-46
2024/01/22 00:31:37;;;;;;;10.18;7.47;;;22.20;40.00;;;;;;10438052;28;20498;-46
2024/01/22 00:36:40;;;;;;;10.77;7.05;;;22.10;40.20;;;;;;10434158;28;20119;-46
2024/01/22 00:41:42;;;;;;;13.60;7.53;;;22.10;40.20;;;;;;10432804;28;20073;-48
2024/01/22 00:46:44;;;;;;;11.75;7.88;;;22.20;40.50;;;;;;10435303;28;20052;-46
2024/01/22 00:51:46;;;;;;;12.25;7.85;;;22.10;40.40;;;;;;10439642;28;20514;-49
2024/01/22 00:56:48;;;;;;;13.32;7.95;;;22.10;40.40;;;;;;10439951;28;20418;-51
2024/01/22 01:01:50;;;;;;;13.18;8.18;;;22.00;40.40;;;;;;10429903;28;20048;-44
2024/01/22 01:06:53;;;;;;;15.25;9.20;;;22.00;40.40;;;;;;10432768;28;20041;-45
2024/01/22 01:11:54;;;;;;;14.40;10.05;;;22.30;40.80;;;;;;10435484;28;20059;-46
2024/01/22 01:16:56;;;;;;;11.82;8.68;;;23.10;39.50;;;;;;10434720;28;20073;-49
2024/01/22 01:21:59;;;;;;;12.88;10.25;;;23.30;38.90;;;;;;10432106;28;20040;-52
2024/01/22 01:27:00;;;;;;;13.27;10.40;;;23.50;38.50;;;;;;10438071;28;20969;-44
2024/01/22 01:32:02;;;;;;;15.23;10.18;;;23.50;38.40;;;;;;10435131;28;20127;-48
2024/01/22 01:37:05;;;;;;;13.05;10.32;;;23.50;38.30;;;;;;10425955;28;20045;-45
2024/01/22 01:42:07;;;;;;;15.80;9.43;;;23.60;38.10;;;;;;10430606;28;20045;-45
2024/01/22 01:47:08;;;;;;;12.93;8.95;;;23.70;37.60;;;;;;10434900;28;20049;-50
2024/01/22 01:52:11;;;;;;;10.63;8.18;;;23.70;37.60;;;;;;10427341;28;20064;-51
2024/01/22 01:57:13;;;;;;;12.25;8.57;;;23.60;37.60;;;;;;10431832;28;20044;-49
2024/01/22 02:02:15;;;;;;;15.13;8.82;;;23.50;37.80;;;;;;10435067;28;20044;-44
2024/01/22 02:07:18;;;;;;;18.08;8.98;;;23.60;38.00;;;;;;10432827;28;20045;-47
2024/01/22 02:12:20;;;;;;;11.10;8.48;;;23.60;37.60;;;;;;10436205;28;20091;-51
2024/01/22 02:17:21;;;;;;;10.38;8.50;;;23.50;37.60;;;;;;10436408;28;20056;-48
2024/01/22 02:22:24;;;;;;;10.25;8.10;;;23.60;37.50;;;;;;10435957;28;20041;-44
2024/01/22 02:27:27;;;;;;;9.23;7.93;;;23.60;37.60;;;;;;10436330;28;20041;-47
2024/01/22 02:32:29;;;;;;;11.07;8.52;;;23.50;37.60;;;;;;10434092;28;20041;-46
2024/01/22 02:37:30;;;;;;;18.27;7.57;;;23.50;37.50;;;;;;10437888;28;20055;-48
2024/01/22 02:42:33;;;;;;;9.25;7.38;;;23.40;38.20;;;;;;10442829;28;20490;-44
2024/01/22 02:47:35;;;;;;;8.82;7.47;;;23.70;37.40;;;;;;10432342;28;20490;-45
2024/01/22 02:52:37;;;;;;;12.00;7.28;;;23.50;37.50;;;;;;10435438;28;20044;-44
2024/01/22 02:57:40;;;;;;;13.65;8.00;;;22.90;38.40;;;;;;10435150;28;20049;-46
2024/01/22 03:02:41;;;;;;;9.25;7.03;;;22.70;38.90;;;;;;10444981;28;20049;-45
2024/01/22 03:07:43;;;;;;;11.70;7.13;;;22.40;39.50;;;;;;10434191;28;20049;-47
2024/01/22 03:12:46;;;;;;;11.75;7.05;;;22.20;40.10;;;;;;10435720;28;20053;-46
2024/01/22 03:17:47;;;;;;;12.82;6.68;;;22.10;39.90;;;;;;10438024;28;20561;-46
2024/01/22 03:22:49;;;;;;;11.80;6.13;;;22.20;40.30;;;;;;10431952;28;20502;-46
2024/01/22 03:27:52;;;;;;;12.40;6.43;;;22.30;39.90;;;;;;10396832;28;1028664;-44
2024/01/22 03:32:54;;;;;;;11.00;5.95;;;22.20;40.00;;;;;;10436967;28;20115;-45
2024/01/22 03:37:55;;;;;;;9.10;6.13;;;22.00;40.10;;;;;;10438830;28;20053;-50
2024/01/22 03:42:58;;;;;;;10.40;5.72;;;22.00;40.20;;;;;;10436044;28;20040;-46
2024/01/22 03:48:00;;;;;;;9.30;6.03;;;21.90;40.30;;;;;;10439484;28;20063;-50
2024/01/22 03:53:01;;;;;;;9.45;5.25;;;21.90;40.70;;;;;;10439448;28;20079;-44
2024/01/22 03:58:04;;;;;;;10.85;5.25;;;21.90;40.40;;;;;;10438800;28;20152;-44
2024/01/22 04:03:06;;;;;;;18.40;5.72;;;21.90;40.50;;;;;;10433394;28;20069;-44
2024/01/22 04:08:08;;;;;;;9.13;5.20;;;22.20;40.80;;;;;;10436322;28;20057;-44
2024/01/22 04:13:10;;;;;;;7.07;5.10;;;22.40;40.00;;;;;;10432119;28;20045;-45
2024/01/22 04:18:12;;;;;;;11.23;5.38;;;22.70;39.30;;;;;;10433637;28;20041;-46
2024/01/22 04:23:14;;;;;;;7.35;4.93;;;22.80;39.60;;;;;;10434696;28;20045;-47
2024/01/22 04:28:17;;;;;;;11.43;5.20;;;22.70;39.50;;;;;;10435931;28;20137;-47
2024/01/22 04:33:18;;;;;;;7.53;5.20;;;22.70;39.60;;;;;;10437643;28;20037;-47
2024/01/22 04:38:20;;;;;;;8.85;5.03;;;22.90;39.40;;;;;;10430737;28;20045;-50
2024/01/22 04:43:23;;;;;;;6.78;5.00;;;22.80;39.70;;;;;;10435069;28;20045;-44
2024/01/22 04:48:25;;;;;;;5.95;4.63;;;22.70;40.00;;;;;;10427002;28;20066;-49
2024/01/22 04:53:26;;;;;;;7.13;4.72;;;22.40;40.60;;;;;;10435300;28;20067;-50
2024/01/22 04:58:29;;;;;;;6.90;4.50;;;22.40;40.80;;;;;;10436586;28;20051;-45
2024/01/22 05:03:31;;;;;;;8.20;3.88;;;22.30;40.90;;;;;;10436114;28;20124;-50
2024/01/22 05:08:32;;;;;;;6.78;4.47;;;22.20;41.40;;;;;;10435909;28;20059;-44
2024/01/22 05:13:35;;;;;;;7.50;4.13;;;22.60;41.40;;;;;;10438140;28;20053;-44
2024/01/22 05:18:37;;;;;;;5.03;3.65;;;22.70;41.20;;;;;;10433561;28;20055;-45
2024/01/22 05:23:39;;;;;;;4.28;3.65;;;22.90;41.40;;;;;;10428289;28;20049;-48
2024/01/22 05:28:42;;;;;;;8.00;4.00;;;22.80;40.70;;;;;;10432225;28;20048;-44
2024/01/22 05:33:44;;;;;;;4.65;3.42;;;22.80;40.80;;;;;;10436240;28;20045;-45
2024/01/22 05:38:45;;;;;;;3.90;3.47;;;22.80;40.90;;;;;;10437937;28;20049;-45
2024/01/22 05:43:48;;;;;;;5.15;3.35;;;22.90;40.90;;;;;;10433378;28;20050;-46
2024/01/22 05:48:50;;;;;;;3.85;3.35;;;22.90;41.90;;;;;;10439410;28;20084;-47
2024/01/22 05:53:51;;;;;;;6.40;3.47;;;23.00;42.10;;;;;;10428123;28;20053;-47
2024/01/22 05:58:54;;;;;;;3.70;3.28;;;23.00;42.40;;;;;;10427378;28;20475;-43
2024/01/22 06:03:56;;;;;;;5.25;3.03;;;22.80;42.90;;;;;;10423034;28;20041;-44
2024/01/22 06:08:58;;;;;;;6.15;2.83;;;22.90;43.00;;;;;;10432879;28;20049;-51
2024/01/22 06:14:01;;;;;;;4.07;2.83;;;23.00;43.60;;;;;;10433198;28;20056;-47
2024/01/22 06:19:02;;;;;;;6.82;3.20;;;23.20;43.00;;;;;;10432863;28;20053;-49
2024/01/22 06:24:04;;;;;;;3.67;2.60;;;23.20;42.50;;;;;;10432688;28;20051;-44
2024/01/22 06:29:11;;;;;;;9.18;2.70;;;23.10;42.70;;;;;;10439755;28;20045;-48
2024/01/22 06:34:12;;;;;;;4.13;1.88;;;22.90;42.70;;;;;;10432385;28;20534;-46
2024/01/22 06:39:14;;;;;;;5.05;2.17;;;22.70;42.70;;;;;;10423393;28;20418;-43
2024/01/22 06:44:17;;;;;;;6.13;2.10;;;22.70;42.70;;;;;;10426231;28;20429;-47
2024/01/22 06:49:18;;;;;;;9.48;2.10;;;22.60;42.60;;;;;;10432761;28;20050;-43
2024/01/22 06:54:20;;;;;;;4.00;1.48;;;22.50;43.20;;;;;;10433369;28;20099;-45
2024/01/22 06:59:23;;;;;;;4.97;1.90;;;22.40;43.40;;;;;;10435853;28;20077;-46
2024/01/22 07:04:24;;;;;;;4.95;1.67;;;22.50;43.40;;;;;;10434500;28;20054;-44
2024/01/22 07:09:26;;;;;;;5.35;1.40;;;22.60;43.20;;;;;;10432135;28;20036;-53
2024/01/22 07:14:29;;;;;;;4.35;1.20;;;22.40;43.10;;;;;;10438511;28;20048;-49
2024/01/22 07:19:31;;;;;;;7.05;1.45;;;22.30;43.10;;;;;;10436059;28;20045;-51
2024/01/22 07:24:32;;;;;;;6.55;0.95;;;22.40;42.80;;;;;;10442199;28;20090;-45
2024/01/22 07:29:35;;;;;;;4.93;1.30;;;22.80;42.30;;;;;;10444064;28;20067;-45
2024/01/22 07:34:37;;;;;;;3.40;1.20;;;22.90;42.80;;;;;;10437053;28;20069;-50
2024/01/22 07:39:38;;;;;;;4.63;1.10;;;23.00;42.80;;;;;;10442465;28;20503;-44
2024/01/22 07:44:41;;;;;;;3.72;1.90;;;23.10;43.60;;;;;;10440157;28;20344;-48
2024/01/22 07:49:43;;;;;;;1.50;1.08;;;23.10;42.70;;;;;;10433241;28;20136;-45
2024/01/22 07:54:45;;;;;;;2.60;0.95;;;23.20;42.60;;;;;;10433700;28;20076;-47
2024/01/22 07:59:47;;;;;;;2.28;1.00;;;23.20;42.20;;;;;;10434459;28;20045;-45
2024/01/22 08:04:50;;;;;;;4.97;0.98;;;23.10;42.40;;;;;;10439583;28;20055;-45
2024/01/22 08:09:51;;;;;;;2.70;0.90;;;23.00;42.50;;;;;;10435316;28;20139;-45
2024/01/22 08:14:54;;;;;;;0.77;0.77;;;22.80;43.10;;;;;;10440426;28;20044;-50
2024/01/22 08:19:56;;;;;;;3.95;0.85;;;22.90;42.90;;;;;;10437344;28;20067;-47
2024/01/22 08:24:57;;;;;;;0.80;0.70;;;23.00;43.10;;;;;;10431039;28;20151;-50
2024/01/22 08:30:00;;;;;;;8.95;0.85;;;23.00;43.30;;;;;;10436279;28;20053;-45
2024/01/22 08:35:02;;;;;;;1.27;0.70;;;23.10;42.80;;;;;;10433701;28;20044;-50
2024/01/22 08:40:05;;;;;;;1.33;0.80;;;23.10;42.50;;;;;;10435338;28;20133;-45
2024/01/22 08:45:09;;;;;;;9.38;1.10;;;23.20;42.40;;;;;;10438939;28;20095;-46
2024/01/22 08:50:15;;;;;;;4.53;0.90;;;23.00;43.10;;;;;;10434546;28;20055;-52
2024/01/22 08:55:18;;;;;;;2.33;0.70;;;23.30;43.10;;;;;;10435295;28;20049;-44
2024/01/22 09:00:21;;;;;;;3.13;0.90;;;23.50;42.70;;;;;;10432696;28;20048;-46
2024/01/22 09:05:23;;;;;;;4.25;0.52;;;23.80;42.20;;;;;;10432209;28;20113;-44
2024/01/22 09:10:26;;;;;;;2.45;0.80;;;24.00;42.20;;;;;;10430738;28;20434;-44
2024/01/22 09:15:29;;;;;;;1.63;0.70;;;24.10;41.70;;;;;;10430606;28;20040;-47
2024/01/22 09:20:31;;;;;;;1.65;0.70;;;24.30;41.70;;;;;;10434919;28;20174;-47
2024/01/22 09:25:33;;;;;;;1.52;0.60;;;24.30;41.60;;;;;;10432873;28;20049;-47
2024/01/22 09:30:36;;;;;;;2.58;0.70;;;24.40;41.60;;;;;;10434863;28;20047;-44
2024/01/22 09:35:38;;;;;;;3.30;0.80;;;24.50;41.40;;;;;;10432522;28;20047;-46
2024/01/22 09:40:39;;;;;;;1.55;0.60;;;24.40;42.50;;;;;;10428548;28;20057;-46
2024/01/22 09:45:42;;;;;;;2.03;0.80;;;24.80;42.90;;;;;;10433757;28;20518;-44
2024/01/22 09:50:44;;;;;;;1.90;0.60;;;24.80;42.50;;;;;;10421119;28;20128;-48
2024/01/22 09:55:46;;;;;;;1.45;0.65;;;24.80;42.60;;;;;;10427085;28;20045;-51
2024/01/22 10:00:49;;;;;;;2.30;0.80;;;24.80;42.70;;;;;;10433504;28;20044;-44
2024/01/22 10:05:51;;;;;;;2.65;0.50;;;24.70;42.80;;;;;;10430720;28;20073;-50
2024/01/22 10:10:53;;;;;;;13.43;0.60;;;24.90;42.70;;;;;;10427460;28;20041;-46
2024/01/22 10:15:56;;;;;;;5.20;0.82;;;24.70;43.10;;;;;;10429336;28;20060;-46
2024/01/22 10:20:58;;;;;;;4.60;1.00;;;24.80;43.40;;;;;;10429324;28;20038;-46
2024/01/22 10:26:06;;;;;;;1.98;0.60;;;24.90;43.30;;;;;;10426307;28;20047;-48
2024/01/22 10:31:11;;;;;;;5.05;0.70;;;24.90;43.10;;;;;;10420364;28;20479;-49
2024/01/22 10:36:14;;;;;;;2.28;0.60;;;24.90;42.90;;;;;;10431344;28;20107;-44
2024/01/22 10:41:19;;;;;;;2.05;0.70;;;24.70;43.20;;;;;;10433127;28;20041;-49
2024/01/22 10:46:22;;;;;;;0.85;0.50;;;24.90;43.10;;;;;;10434358;28;20045;-45
2024/01/22 10:51:24;;;;;;;4.90;0.70;;;24.80;43.20;;;;;;10438319;28;20064;-44
2024/01/22 10:56:26;;;;;;;3.10;0.65;;;24.80;43.10;;;;;;10431554;28;20510;-44
2024/01/22 11:01:29;;;;;;;5.65;0.88;;;24.90;43.30;;;;;;10434541;28;20080;-48
2024/01/22 11:06:30;;;;;;;1.48;0.70;;;24.70;43.50;;;;;;10432849;28;20056;-47
2024/01/22 11:11:32;;;;;;;4.05;0.82;;;24.80;43.40;;;;;;10431532;28;20044;-44
2024/01/22 11:16:35;;;;;;;3.08;0.63;;;24.70;43.50;;;;;;10440811;28;20155;-47
2024/01/22 11:21:37;;;;;;;3.33;0.63;;;24.70;43.50;;;;;;10434332;28;20048;-45
2024/01/22 11:26:44;;;;;;;4.25;0.65;;;24.60;43.70;;;;;;10437769;28;20549;-45
2024/01/22 11:31:48;;;;;;;3.22;0.50;;;24.70;43.50;;;;;;10435494;28;20045;-45
2024/01/22 11:36:55;;;;;;;0.98;0.50;;;24.70;43.80;;;;;;10428476;28;20089;-46
2024/01/22 11:41:57;;;;;;;1.70;0.68;;;24.70;43.80;;;;;;10428351;28;20053;-45
2024/01/22 11:47:08;;;;;;;3.20;0.75;;;24.70;43.90;;;;;;10429878;28;20045;-46
2024/01/22 11:52:10;;;;;;;;;;;24.70;43.90;;;;;;10439713;28;20498;-48
2024/01/22 11:57:14;;;;;;;2.38;0.80;;;24.70;44.20;;;;;;10437285;28;20199;-47
2024/01/22 12:02:17;;;;;;;3.05;0.60;;;24.90;43.90;;;;;;10434739;28;20104;-50
2024/01/22 12:07:18;;;;;;;4.20;0.82;;;24.90;44.00;;;;;;10438814;28;20047;-45
2024/01/22 12:12:20;;;;;;;1.60;0.68;;;25.00;43.70;;;;;;10429430;28;20067;-48
2024/01/22 12:17:23;;;;;;;2.08;0.60;;;24.90;43.70;;;;;;10431495;28;20045;-46
2024/01/22 12:22:25;;;;;;;1.98;0.50;;;24.90;43.90;;;;;;10432149;28;20045;-46
2024/01/22 12:27:26;;;;;;;3.10;0.70;;;25.00;43.60;;;;;;10428607;28;20038;-50
2024/01/22 12:32:29;;;;;;;3.33;0.60;;;24.90;43.70;;;;;;10438820;28;20047;-46
2024/01/22 12:37:32;;;;;;;0.93;0.45;;;25.10;43.80;;;;;;10437271;28;20143;-50
2024/01/22 12:42:33;;;;;;;3.70;0.50;;;25.10;43.80;;;;;;10434063;28;20128;-50
2024/01/22 12:47:36;;;;;;;5.00;0.70;;;24.90;44.30;;;;;;10436253;28;20082;-44
2024/01/22 12:52:40;;;;;;;17.63;1.33;;;24.90;44.30;;;;;;10427196;28;20132;-46
2024/01/22 12:57:43;;;;;;;3.35;0.90;;;24.90;44.10;;;;;;10429825;28;20048;-51
2024/01/22 13:02:45;;;;;;;2.63;1.10;;;25.10;43.60;;;;;;10432048;28;20087;-47
2024/01/22 13:07:47;;;;;;;5.82;1.10;;;24.70;44.00;;;;;;10430402;28;20047;-45
2024/01/22 13:12:49;;;;;;;3.53;1.05;;;24.80;43.70;;;;;;10441177;28;20048;-47
2024/01/22 13:17:52;;;;;;;6.22;1.02;;;24.90;43.40;;;;;;10431616;28;20063;-46
2024/01/22 13:22:53;;;;;;;2.08;0.75;;;25.00;43.00;;;;;;10436871;28;20059;-48
2024/01/22 13:27:56;;;;;;;2.55;0.98;;;25.00;42.90;;;;;;10426859;28;20048;-47
2024/01/22 13:33:00;;;;;;;2.80;1.00;;;25.10;42.40;;;;;;10430632;28;20099;-46
2024/01/22 13:38:02;;;;;;;3.47;1.35;;;25.10;42.00;;;;;;10433091;28;20044;-48
2024/01/22 13:43:03;;;;;;;4.63;1.23;;;24.90;41.50;;;;;;10435153;28;20511;-46
2024/01/22 13:48:08;;;;;;;4.50;1.00;;;24.60;42.40;;;;;;10430313;28;20049;-46
2024/01/22 13:53:10;;;;;;;8.35;1.30;;;24.70;42.50;;;;;;10434234;28;20041;-47
2024/01/22 13:58:11;;;;;;;4.75;1.00;;;24.50;43.10;;;;;;10431582;28;20418;-47
2024/01/22 14:03:15;;;;;;;4.85;1.10;;;24.70;42.90;;;;;;10434080;28;20049;-47
2024/01/22 14:08:17;;;;;;;2.50;1.20;;;24.90;42.60;;;;;;10426933;28;20049;-47
2024/01/22 14:13:20;;;;;;;3.75;1.42;;;25.10;42.10;;;;;;10429462;28;20041;-46
2024/01/22 14:18:24;;;;;;;7.93;1.30;;;25.40;41.70;;;;;;10431664;28;20044;-51
2024/01/22 14:23:26;;;;;;;2.80;1.00;;;25.20;42.00;;;;;;10430515;28;20059;-47
2024/01/22 14:28:28;;;;;;;4.10;1.30;;;25.10;42.50;;;;;;10441328;28;20175;-48
2024/01/22 14:33:30;;;;;;;4.47;1.60;;;25.10;41.50;;;;;;10434399;28;20514;-48
2024/01/22 14:38:32;;;;;;;4.55;1.50;;;24.80;41.40;;;;;;10445031;28;20519;-50
2024/01/22 14:43:34;;;;;;;7.57;1.83;;;24.90;41.90;;;;;;10438450;28;20053;-47
2024/01/22 14:48:37;;;;;;;9.48;2.10;;;24.90;42.30;;;;;;10438805;28;20128;-48
2024/01/22 14:53:39;;;;;;;9.40;1.83;;;24.90;41.40;;;;;;10436616;28;20052;-51
2024/01/22 14:58:41;;;;;;;9.15;2.22;;;24.80;42.90;;;;;;10437124;28;20490;-48
2024/01/22 15:03:44;;;;;;;7.78;2.40;;;24.70;43.10;;;;;;10435507;28;20048;-47
2024/01/22 15:08:46;;;;;;;9.30;2.40;;;24.70;44.30;;;;;;10440672;28;20129;-52
2024/01/22 15:13:48;;;;;;;18.02;4.68;;;24.60;44.60;;;;;;10434573;28;20045;-49
2024/01/22 15:18:51;;;;;;;18.23;7.05;;;24.80;41.80;;;;;;10439581;28;20418;-48
2024/01/22 15:23:54;;;;;;;18.13;6.63;;;25.10;41.60;;;;;;10439858;28;20077;-49
2024/01/22 15:28:56;;;;;;;11.52;5.32;;;25.00;41.70;;;;;;10436783;28;20720;-47
2024/01/22 15:33:59;;;;;;;11.73;4.93;;;25.00;41.90;;;;;;10438414;28;20075;-48
2024/01/22 15:39:00;;;;;;;11.30;4.03;;;25.00;41.90;;;;;;10438880;28;20052;-48
2024/01/22 15:44:04;;;;;;;8.63;3.63;;;25.00;42.30;;;;;;10438909;28;20046;-50
2024/01/22 15:49:08;;;;;;;10.60;3.78;;;25.00;41.70;;;;;;10431444;28;20049;-49
2024/01/22 15:54:10;;;;;;;9.00;3.22;;;24.90;40.40;;;;;;10440420;28;20053;-48
2024/01/22 15:59:11;;;;;;;8.63;3.50;;;24.60;41.40;;;;;;10437835;28;20056;-51
2024/01/22 16:04:14;;;;;;;11.63;3.00;;;24.70;41.50;;;;;;10437983;28;20055;-55
2024/01/22 16:09:16;;;;;;;6.95;2.55;;;24.70;41.40;;;;;;10438667;28;20044;-49
2024/01/22 16:14:17;;;;;;;11.65;2.88;;;24.60;42.10;;;;;;10435443;28;20045;-47
2024/01/22 16:19:20;;;;;;;7.68;2.25;;;24.50;41.30;;;;;;10433845;28;20052;-49
2024/01/22 16:24:22;;;;;;;6.93;2.10;;;24.60;40.60;;;;;;10441993;28;20045;-46
2024/01/22 16:29:23;;;;;;;9.73;2.00;;;24.70;39.50;;;;;;10436635;28;20042;-47
2024/01/22 16:34:26;;;;;;;13.10;2.53;;;24.60;39.00;;;;;;10436346;28;20606;-50
2024/01/22 16:39:29;;;;;;;9.57;2.60;;;24.70;40.00;;;;;;10434399;28;20482;-47
2024/01/22 16:44:31;;;;;;;6.93;2.08;;;24.70;39.70;;;;;;10433294;28;20052;-49
2024/01/22 16:49:34;;;;;;;6.80;2.40;;;24.80;38.90;;;;;;10437013;28;20068;-47
2024/01/22 16:54:35;;;;;;;9.82;2.58;;;24.60;38.90;;;;;;10433367;28;20049;-48
2024/01/22 16:59:37;;;;;;;10.18;2.75;;;24.50;38.70;;;;;;10434861;28;20043;-47
2024/01/22 17:04:40;;;;;;;8.32;2.72;;;24.50;39.70;;;;;;10435261;28;20051;-49
2024/01/22 17:09:41;;;;;;;12.13;2.95;;;24.40;39.70;;;;;;10432578;28;20051;-47
2024/01/22 17:14:43;;;;;;;13.32;2.88;;;24.30;39.20;;;;;;10430327;28;20047;-51
2024/01/22 17:19:46;;;;;;;9.98;3.05;;;24.20;38.90;;;;;;10425496;28;20036;-47
2024/01/22 17:24:47;;;;;;;9.48;2.95;;;24.10;38.80;;;;;;10425211;28;20053;-51
2024/01/22 17:29:49;;;;;;;9.38;2.95;;;24.10;38.50;;;;;;10428970;28;20051;-46
2024/01/22 17:34:52;;;;;;;7.25;2.88;;;23.70;40.10;;;;;;10435036;28;20224;-50
2024/01/22 17:39:53;;;;;;;11.10;2.90;;;23.70;41.30;;;;;;10423344;28;20055;-47
2024/01/22 17:44:58;;;;;;;9.02;2.90;;;23.80;41.50;;;;;;10428079;28;20053;-46
2024/01/22 17:50:01;;;;;;;8.88;2.55;;;23.80;42.20;;;;;;10427143;28;20045;-47
2024/01/22 17:55:03;;;;;;;8.48;2.78;;;23.90;42.10;;;;;;10421950;28;20442;-47
2024/01/22 18:00:06;;;;;;;7.97;2.40;;;23.80;42.40;;;;;;10423879;28;20087;-49
2024/01/22 18:05:10;;;;;;;7.25;2.25;;;24.00;42.10;;;;;;10429879;28;20055;-47
2024/01/22 18:10:13;;;;;;;6.45;2.45;;;23.80;42.70;;;;;;10434931;28;20537;-49
2024/01/22 18:15:15;;;;;;;9.05;2.65;;;23.90;42.80;;;;;;10443345;28;20064;-47
2024/01/22 18:20:18;;;;;;;8.25;2.35;;;24.00;43.00;;;;;;10425317;28;20037;-52
2024/01/22 18:25:19;;;;;;;8.48;2.88;;;24.20;43.90;;;;;;10430796;28;20046;-46
2024/01/22 18:30:21;;;;;;;8.45;2.92;;;24.00;39.60;;;;;;10428093;28;20033;-49
2024/01/22 18:35:24;;;;;;;14.60;2.90;;;23.70;39.40;;;;;;10428199;28;20124;-47
2024/01/22 18:40:26;;;;;;;8.50;2.80;;;23.60;39.20;;;;;;10433521;28;20060;-47
2024/01/22 18:45:27;;;;;;;10.65;2.70;;;23.70;39.00;;;;;;10433670;28;20045;-50
2024/01/22 18:50:35;;;;;;;10.55;2.67;;;23.70;39.00;;;;;;10432163;28;20036;-47
2024/01/22 18:55:37;;;;;;;10.73;2.72;;;23.80;38.90;;;;;;10424316;28;20053;-47
2024/01/22 19:00:38;;;;;;;10.48;2.80;;;23.60;38.90;;;;;;10428767;28;20086;-50
2024/01/22 19:05:41;;;;;;;9.18;2.92;;;23.50;39.80;;;;;;10432133;28;20045;-49
2024/01/22 19:10:43;;;;;;;11.10;3.03;;;23.60;38.50;;;;;;10436455;28;20048;-47
2024/01/22 19:15:45;;;;;;;11.52;2.83;;;23.40;39.80;;;;;;10443597;28;20064;-49
2024/01/22 19:20:48;;;;;;;7.80;2.70;;;23.30;40.40;;;;;;10439505;28;20045;-47
2024/01/22 19:25:49;;;;;;;11.90;2.90;;;23.40;39.90;;;;;;10443391;28;20120;-46
2024/01/22 19:30:51;;;;;;;15.88;3.08;;;23.60;39.90;;;;;;10441321;28;20053;-48
2024/01/22 19:35:54;;;;;;;10.48;3.28;;;23.50;39.60;;;;;;10433781;28;20045;-46
2024/01/22 19:40:55;;;;;;;12.20;2.95;;;23.50;39.60;;;;;;10439064;28;20045;-46
2024/01/22 19:45:57;;;;;;;10.10;3.17;;;23.30;38.90;;;;;;10441419;28;20095;-47
2024/01/22 19:51:00;;;;;;;11.25;3.15;;;23.20;38.70;;;;;;10440400;28;20044;-48
2024/01/22 19:56:01;;;;;;;9.27;3.15;;;23.10;39.40;;;;;;10437890;28;20043;-52
2024/01/22 20:01:03;;;;;;;9.13;3.08;;;23.00;39.20;;;;;;10440076;28;20418;-47
2024/01/22 20:06:06;;;;;;;6.78;2.60;;;23.00;39.30;;;;;;10440638;28;20083;-48
2024/01/22 20:11:08;;;;;;;9.00;3.00;;;23.00;39.90;;;;;;10433414;28;20132;-49
2024/01/22 20:16:10;;;;;;;10.40;3.00;;;23.10;40.20;;;;;;10434081;28;20404;-48
2024/01/22 20:21:14;;;;;;;10.02;2.15;;;23.00;40.30;;;;;;10436628;28;20104;-47
2024/01/22 20:26:15;;;;;;;9.98;2.58;;;22.90;40.80;;;;;;10440159;28;20126;-46
2024/01/22 20:31:17;;;;;;;9.45;2.92;;;22.80;41.00;;;;;;10440007;28;20140;-50
2024/01/22 20:36:20;;;;;;;10.18;2.60;;;22.80;41.10;;;;;;10442916;28;20051;-47
2024/01/22 20:41:22;;;;;;;6.80;2.33;;;22.90;41.30;;;;;;10420903;28;20065;-47
2024/01/22 20:46:23;;;;;;;7.38;2.33;;;23.10;40.90;;;;;;10433302;28;20545;-46
2024/01/22 20:51:26;;;;;;;12.63;2.50;;;23.00;41.30;;;;;;10426787;28;20128;-47
2024/01/22 20:56:28;;;;;;;7.00;2.15;;;23.00;41.30;;;;;;10432259;28;20139;-50
2024/01/22 21:01:30;;;;;;;7.57;2.30;;;22.90;41.50;;;;;;10437205;28;20107;-47
2024/01/22 21:06:33;;;;;;;9.18;2.45;;;22.80;41.30;;;;;;10438131;28;20136;-46
2024/01/22 21:11:34;;;;;;;6.35;2.28;;;22.60;41.80;;;;;;10439620;28;20128;-47
2024/01/22 21:16:36;;;;;;;5.97;2.10;;;22.60;42.00;;;;;;10434200;28;20509;-49
2024/01/22 21:21:42;;;;;;;9.50;2.42;;;22.70;41.80;;;;;;10437094;28;20076;-47
2024/01/22 21:26:45;;;;;;;6.50;2.38;;;22.80;41.70;;;;;;10425670;28;20041;-52
2024/01/22 21:31:47;;;;;;;8.38;2.53;;;22.90;42.00;;;;;;10429628;28;20052;-48
2024/01/22 21:36:51;;;;;;;8.20;2.50;;;23.00;41.30;;;;;;10435563;28;20049;-50
2024/01/22 21:41:53;;;;;;;6.70;2.50;;;23.10;41.30;;;;;;10439288;28;20048;-47
2024/01/22 21:46:55;;;;;;;6.40;2.25;;;23.30;41.00;;;;;;10438793;28;20057;-46
2024/01/22 21:51:58;;;;;;;6.53;2.35;;;23.20;41.10;;;;;;10431587;28;20045;-49
2024/01/22 21:57:00;;;;;;;4.53;1.92;;;23.30;41.20;;;;;;10435854;28;20053;-48
2024/01/22 22:02:01;;;;;;;6.18;2.40;;;23.30;41.10;;;;;;10438831;28;20133;-47
2024/01/22 22:07:04;;;;;;;5.78;2.30;;;23.30;41.30;;;;;;10424988;28;20059;-51
2024/01/22 22:12:06;;;;;;;9.25;2.63;;;23.10;41.50;;;;;;10438614;28;20475;-47
2024/01/22 22:17:08;;;;;;;5.47;1.98;;;22.90;42.00;;;;;;10433877;28;20140;-49
2024/01/22 22:22:12;;;;;;;5.25;2.10;;;22.90;42.00;;;;;;10435356;28;20395;-46
2024/01/22 22:27:14;;;;;;;11.32;2.45;;;22.80;42.20;;;;;;10434008;28;20084;-50
2024/01/22 22:32:15;;;;;;;4.22;1.70;;;22.80;42.00;;;;;;10438218;28;20045;-46
2024/01/22 22:37:19;;;;;;;4.63;1.73;;;22.50;42.80;;;;;;10438103;28;20049;-46
2024/01/22 22:42:20;;;;;;;5.25;2.20;;;22.50;42.80;;;;;;10428563;28;20053;-49
2024/01/22 22:47:22;;;;;;;4.97;1.98;;;22.60;42.60;;;;;;10436768;28;20073;-46
2024/01/22 22:52:27;;;;;;;4.13;1.70;;;22.60;42.50;;;;;;10442950;28;20136;-46
2024/01/22 22:57:28;;;;;;;4.80;1.90;;;23.00;42.10;;;;;;10439222;28;20490;-46
2024/01/22 23:02:31;;;;;;;9.50;2.10;;;23.10;42.20;;;;;;10442628;28;20516;-46
2024/01/22 23:07:34;;;;;;;4.78;1.85;;;23.20;43.00;;;;;;10429825;28;20060;-46
2024/01/22 23:12:36;;;;;;;4.45;1.85;;;23.20;44.20;;;;;;10440760;28;20073;-46
2024/01/22 23:17:38;;;;;;;4.47;1.83;;;23.10;44.60;;;;;;10429250;28;20061;-50
2024/01/22 23:22:41;;;;;;;10.27;2.10;;;23.10;42.90;;;;;;10428754;28;20057;-49
2024/01/22 23:27:43;;;;;;;11.35;2.30;;;23.30;43.50;;;;;;10438287;28;20041;-49
2024/01/22 23:32:44;;;;;;;18.02;2.42;;;23.30;43.50;;;;;;10436263;28;20421;-46
2024/01/22 23:37:51;;;;;;;12.13;2.03;;;23.20;44.20;;;;;;10437438;28;20532;-46
2024/01/22 23:42:53;;;;;;;15.48;1.92;;;23.20;44.30;;;;;;10443533;28;20080;-46
2024/01/22 23:47:54;;;;;;;21.60;2.35;;;23.50;43.50;;;;;;10446523;28;20051;-46
2024/01/22 23:52:57;;;;;;;12.25;2.45;;;23.60;42.80;;;;;;10434412;28;20076;-51
2024/01/22 23:57:59;;;;;;;8.38;2.25;;;23.60;43.50;;;;;;10429849;28;20055;-47
